Time,TemperatureF,DewpointF,PressureIn,WindDirection,WindDirectionDegrees,WindSpeedMPH,WindSpeedGustMPH,Humidity,HourlyPrecipIn,Conditions,Clouds,dailyrainin,SoftwareType,DateUTC
2013-09-24 00:00:00,67.0,57.3,29.61,NNW,337,9.0,13.0,71,0.00,,,0.00,Weather View 32 v70,2013-09-24 04:00:00,
2013-09-24 00:05:00,66.0,55.5,29.61,NNW,337,10.0,13.0,69,0.00,,,0.00,Weather View 32 v70,2013-09-24 04:05:00,
2013-09-24 00:10:00,67.0,57.3,29.61,NNW,337,10.0,13.0,71,0.00,,,0.00,Weather View 32 v70,2013-09-24 04:10:00,
2013-09-24 00:18:00,66.0,55.5,29.61,NNW,337,9.0,13.0,69,0.00,,,0.00,Weather View 32 v70,2013-09-24 04:18:00,
2013-09-24 00:20:00,67.0,56.9,29.62,NNW,337,5.0,13.0,70,0.00,,,0.00,Weather View 32 v70,2013-09-24 04:20:00,
2013-09-24 00:25:00,66.0,55.5,29.62,NNW,337,8.0,13.0,69,0.00,,,0.00,Weather View 32 v70,2013-09-24 04:25:00,
2013-09-24 00:30:00,65.0,54.9,29.63,NNW,337,6.0,13.0,70,0.00,,,0.00,Weather View 32 v70,2013-09-24 04:30:00,
2013-09-24 00:35:00,65.0,54.2,29.63,NNW,337,7.0,13.0,68,0.00,,,0.00,Weather View 32 v70,2013-09-24 04:35:00,
2013-09-24 00:45:00,64.0,52.8,29.65,NNW,337,3.0,13.0,67,0.00,,,0.00,Weather View 32 v70,2013-09-24 04:45:00,
2013-09-24 00:50:00,64.0,54.0,29.64,NNW,337,6.0,13.0,70,0.00,,,0.00,Weather View 32 v70,2013-09-24 04:50:00,
2013-09-24 01:00:00,64.0,53.6,29.65,NNW,337,6.0,10.0,69,0.00,,,0.00,Weather View 32 v70,2013-09-24 05:00:00,
2013-09-24 01:05:00,64.0,52.4,29.65,NNW,337,5.0,10.0,66,0.00,,,0.00,Weather View 32 v70,2013-09-24 05:05:00,
2013-09-24 01:10:00,64.0,53.6,29.64,NNW,337,5.0,10.0,69,0.00,,,0.00,Weather View 32 v70,2013-09-24 05:10:00,
2013-09-24 01:15:00,64.0,52.8,29.64,NNW,337,6.0,10.0,67,0.00,,,0.00,Weather View 32 v70,2013-09-24 05:15:00,
2013-09-24 01:20:00,64.0,53.6,29.64,NNW,337,5.0,9.0,69,0.00,,,0.00,Weather View 32 v70,2013-09-24 05:20:00,
2013-09-24 01:25:00,64.0,52.8,29.64,NNW,337,3.0,9.0,67,0.00,,,0.00,Weather View 32 v70,2013-09-24 05:25:00,
2013-09-24 01:30:00,64.0,54.0,29.63,NNW,337,7.0,9.0,70,0.00,,,0.00,Weather View 32 v70,2013-09-24 05:30:00,
2013-09-24 01:35:00,64.0,53.2,29.63,NNW,337,6.0,9.0,68,0.00,,,0.00,Weather View 32 v70,2013-09-24 05:35:00,
2013-09-24 01:40:00,64.0,54.0,29.63,NNW,337,7.0,9.0,70,0.00,,,0.00,Weather View 32 v70,2013-09-24 05:40:00,
2013-09-24 01:45:00,64.0,53.6,29.63,NNW,337,6.0,9.0,69,0.00,,,0.00,Weather View 32 v70,2013-09-24 05:45:00,
2013-09-24 01:50:00,64.0,54.0,29.63,NNW,337,8.0,9.0,70,0.00,,,0.00,Weather View 32 v70,2013-09-24 05:50:00,
2013-09-24 01:55:00,64.0,53.6,29.63,NNW,337,7.0,9.0,69,0.00,,,0.00,Weather View 32 v70,2013-09-24 05:55:00,
2013-09-24 02:00:00,64.0,53.6,29.63,NNW,337,4.0,9.0,69,0.00,,,0.00,Weather View 32 v70,2013-09-24 06:00:00,
2013-09-24 02:05:00,64.0,53.6,29.63,NNW,337,7.0,9.0,69,0.00,,,0.00,Weather View 32 v70,2013-09-24 06:05:00,
2013-09-24 02:15:00,64.0,53.6,29.63,NNW,337,9.0,9.0,69,0.00,,,0.00,Weather View 32 v70,2013-09-24 06:15:00,
2013-09-24 02:20:00,64.0,53.6,29.63,NNW,337,6.0,9.0,69,0.00,,,0.00,Weather View 32 v70,2013-09-24 06:20:00,
2013-09-24 02:25:00,64.0,53.6,29.63,NNW,337,6.0,9.0,69,0.00,,,0.00,Weather View 32 v70,2013-09-24 06:25:00,
2013-09-24 02:30:00,64.0,53.6,29.63,NNW,337,5.0,9.0,69,0.00,,,0.00,Weather View 32 v70,2013-09-24 06:30:00,
2013-09-24 02:35:00,64.0,53.6,29.63,NNW,337,5.0,9.0,69,0.00,,,0.00,Weather View 32 v70,2013-09-24 06:35:00,
2013-09-24 02:40:00,64.0,53.6,29.63,NNW,337,1.0,9.0,69,0.00,,,0.00,Weather View 32 v70,2013-09-24 06:40:00,
2013-09-24 02:45:00,64.0,53.6,29.65,NNW,337,6.0,9.0,69,0.00,,,0.00,Weather View 32 v70,2013-09-24 06:45:00,
2013-09-24 02:50:00,64.0,53.6,29.65,NNW,337,7.0,9.0,69,0.00,,,0.00,Weather View 32 v70,2013-09-24 06:50:00,
2013-09-24 02:55:00,64.0,53.6,29.63,NNW,337,9.0,10.0,69,0.00,,,0.00,Weather View 32 v70,2013-09-24 06:55:00,
2013-09-24 03:00:00,64.0,53.6,29.63,NNW,337,9.0,10.0,69,0.00,,,0.00,Weather View 32 v70,2013-09-24 07:00:00,
2013-09-24 03:05:00,64.0,53.6,29.63,NNW,337,8.0,10.0,69,0.00,,,0.00,Weather View 32 v70,2013-09-24 07:05:00,
2013-09-24 03:10:00,64.0,53.6,29.63,NNW,337,8.0,12.0,69,0.00,,,0.00,Weather View 32 v70,2013-09-24 07:10:00,
2013-09-24 03:20:00,65.0,54.6,29.62,ENE,67,9.0,12.0,69,0.00,,,0.00,Weather View 32 v70,2013-09-24 07:20:00,
2013-09-24 03:30:00,64.0,53.6,29.62,NNW,337,7.0,12.0,69,0.00,,,0.00,Weather View 32 v70,2013-09-24 07:30:00,
2013-09-24 03:35:00,64.0,53.6,29.63,NNW,337,5.0,12.0,69,0.00,,,0.00,Weather View 32 v70,2013-09-24 07:35:00,
2013-09-24 03:40:00,64.0,53.6,29.63,NNW,337,9.0,12.0,69,0.00,,,0.00,Weather View 32 v70,2013-09-24 07:40:00,
2013-09-24 03:45:00,63.0,52.6,29.62,NNW,337,8.0,12.0,69,0.00,,,0.00,Weather View 32 v70,2013-09-24 07:45:00,
2013-09-24 03:50:00,63.0,52.6,29.62,NNW,337,9.0,12.0,69,0.00,,,0.00,Weather View 32 v70,2013-09-24 07:50:00,
2013-09-24 03:55:00,63.0,52.6,29.63,NNW,337,4.0,12.0,69,0.00,,,0.00,Weather View 32 v70,2013-09-24 07:55:00,
2013-09-24 04:00:00,63.0,53.0,29.63,NNW,337,6.0,12.0,70,0.00,,,0.00,Weather View 32 v70,2013-09-24 08:00:00,
2013-09-24 04:05:00,63.0,52.6,29.64,NNW,337,9.0,12.0,69,0.00,,,0.00,Weather View 32 v70,2013-09-24 08:05:00,
2013-09-24 04:10:00,63.0,53.0,29.64,NNW,337,9.0,12.0,70,0.00,,,0.00,Weather View 32 v70,2013-09-24 08:10:00,
2013-09-24 04:15:00,63.0,53.0,29.63,NNW,337,11.0,13.0,70,0.00,,,0.00,Weather View 32 v70,2013-09-24 08:15:00,
2013-09-24 04:20:00,63.0,53.0,29.63,NNW,337,12.0,13.0,70,0.00,,,0.00,Weather View 32 v70,2013-09-24 08:20:00,
2013-09-24 04:25:00,63.0,53.0,29.61,NNW,337,10.0,13.0,70,0.00,,,0.00,Weather View 32 v70,2013-09-24 08:25:00,
2013-09-24 04:30:00,63.0,53.0,29.61,NNW,337,10.0,13.0,70,0.00,,,0.00,Weather View 32 v70,2013-09-24 08:30:00,
2013-09-24 04:40:00,63.0,53.0,29.62,NNW,337,8.0,13.0,70,0.00,,,0.00,Weather View 32 v70,2013-09-24 08:40:00,
2013-09-24 04:45:00,63.0,53.0,29.63,NNW,337,10.0,13.0,70,0.00,,,0.00,Weather View 32 v70,2013-09-24 08:45:00,
2013-09-24 04:50:00,63.0,53.0,29.63,NNW,337,9.0,13.0,70,0.00,,,0.00,Weather View 32 v70,2013-09-24 08:50:00,
2013-09-24 04:55:00,62.0,52.1,29.62,NNW,337,9.0,13.0,70,0.00,,,0.00,Weather View 32 v70,2013-09-24 08:55:00,
2013-09-24 05:00:00,62.0,52.1,29.62,NNW,337,7.0,13.0,70,0.00,,,0.00,Weather View 32 v70,2013-09-24 09:00:00,
2013-09-24 05:05:00,62.0,52.1,29.63,NNW,337,7.0,13.0,70,0.00,,,0.00,Weather View 32 v70,2013-09-24 09:05:00,
2013-09-24 05:10:00,62.0,52.1,29.63,NNW,337,10.0,13.0,70,0.00,,,0.00,Weather View 32 v70,2013-09-24 09:10:00,
2013-09-24 05:15:00,62.0,52.1,29.62,ENE,67,9.0,13.0,70,0.00,,,0.00,Weather View 32 v70,2013-09-24 09:15:00,
2013-09-24 05:20:00,62.0,52.1,29.62,ENE,67,10.0,13.0,70,0.00,,,0.00,Weather View 32 v70,2013-09-24 09:20:00,
2013-09-24 05:30:00,62.0,52.1,29.63,NNW,337,10.0,14.0,70,0.00,,,0.00,Weather View 32 v70,2013-09-24 09:30:00,
2013-09-24 05:35:00,62.0,52.1,29.63,NNW,337,9.0,14.0,70,0.00,,,0.00,Weather View 32 v70,2013-09-24 09:35:00,
2013-09-24 05:40:00,62.0,52.1,29.63,NNW,337,6.0,14.0,70,0.00,,,0.00,Weather View 32 v70,2013-09-24 09:40:00,
2013-09-24 05:45:00,61.0,51.1,29.65,NNW,337,7.0,14.0,70,0.00,,,0.00,Weather View 32 v70,2013-09-24 09:45:00,
2013-09-24 05:50:00,61.0,51.1,29.65,NNW,337,7.0,14.0,70,0.00,,,0.00,Weather View 32 v70,2013-09-24 09:50:00,
2013-09-24 05:55:00,61.0,51.1,29.64,NNW,337,5.0,14.0,70,0.00,,,0.00,Weather View 32 v70,2013-09-24 09:55:00,
2013-09-24 06:00:00,61.0,51.1,29.64,NNW,337,6.0,14.0,70,0.00,,,0.00,Weather View 32 v70,2013-09-24 10:00:00,
2013-09-24 06:10:00,61.0,51.1,29.66,NNW,337,7.0,14.0,70,0.00,,,0.00,Weather View 32 v70,2013-09-24 10:10:00,
2013-09-24 06:15:00,61.0,51.1,29.65,NNW,337,7.0,14.0,70,0.00,,,0.00,Weather View 32 v70,2013-09-24 10:15:00,
2013-09-24 06:20:00,61.0,51.1,29.65,NNW,337,4.0,14.0,70,0.00,,,0.00,Weather View 32 v70,2013-09-24 10:20:00,
2013-09-24 06:25:00,60.0,49.8,29.66,NNW,337,7.0,14.0,69,0.00,,,0.00,Weather View 32 v70,2013-09-24 10:25:00,
2013-09-24 06:30:00,60.0,49.8,29.66,NNW,337,6.0,12.0,69,0.00,,,0.00,Weather View 32 v70,2013-09-24 10:30:00,
2013-09-24 06:35:00,60.0,49.8,29.66,NNW,337,7.0,10.0,69,0.00,,,0.00,Weather View 32 v70,2013-09-24 10:35:00,
2013-09-24 06:40:00,60.0,49.8,29.66,NNW,337,7.0,10.0,69,0.00,,,0.00,Weather View 32 v70,2013-09-24 10:40:00,
2013-09-24 06:45:00,60.0,49.8,29.67,NNW,337,6.0,10.0,69,0.00,,,0.00,Weather View 32 v70,2013-09-24 10:45:00,
2013-09-24 06:50:00,60.0,49.8,29.67,NNW,337,6.0,10.0,69,0.00,,,0.00,Weather View 32 v70,2013-09-24 10:50:00,
2013-09-24 06:55:00,60.0,49.8,29.67,NNW,337,8.0,10.0,69,0.00,,,0.00,Weather View 32 v70,2013-09-24 10:55:00,
2013-09-24 07:05:00,60.0,49.8,29.65,NNW,337,6.0,10.0,69,0.00,,,0.00,Weather View 32 v70,2013-09-24 11:05:00,
2013-09-24 07:10:00,60.0,50.2,29.65,NNW,337,6.0,10.0,70,0.00,,,0.00,Weather View 32 v70,2013-09-24 11:10:00,
2013-09-24 07:15:00,61.0,51.1,29.67,NNW,337,5.0,10.0,70,0.00,,,0.00,Weather View 32 v70,2013-09-24 11:15:00,
2013-09-24 07:20:00,61.0,51.1,29.67,NNW,337,9.0,10.0,70,0.00,,,0.00,Weather View 32 v70,2013-09-24 11:20:00,
2013-09-24 07:25:00,62.0,52.1,29.65,NNW,337,9.0,10.0,70,0.00,,,0.00,Weather View 32 v70,2013-09-24 11:25:00,
2013-09-24 07:30:00,63.0,53.0,29.65,NNW,337,10.0,11.0,70,0.00,,,0.00,Weather View 32 v70,2013-09-24 11:30:00,
2013-09-24 07:35:00,64.0,54.0,29.64,NNW,337,9.0,11.0,70,0.00,,,0.00,Weather View 32 v70,2013-09-24 11:35:00,
2013-09-24 07:40:00,64.0,54.4,29.64,NNW,337,9.0,11.0,71,0.00,,,0.00,Weather View 32 v70,2013-09-24 11:40:00,
2013-09-24 07:45:00,65.0,55.3,29.64,NNW,337,9.0,11.0,71,0.00,,,0.00,Weather View 32 v70,2013-09-24 11:45:00,
2013-09-24 07:50:00,65.0,55.3,29.64,ENE,67,10.0,11.0,71,0.00,,,0.00,Weather View 32 v70,2013-09-24 11:50:00,
2013-09-24 08:00:00,66.0,56.7,29.66,NNW,337,10.0,13.0,72,0.00,,,0.00,Weather View 32 v70,2013-09-24 12:00:00,
2013-09-24 08:05:00,66.0,56.7,29.65,NNW,337,15.0,16.0,72,0.00,,,0.00,Weather View 32 v70,2013-09-24 12:05:00,
2013-09-24 08:10:00,67.0,57.6,29.65,NNW,337,11.0,16.0,72,0.00,,,0.00,Weather View 32 v70,2013-09-24 12:10:00,
2013-09-24 08:15:00,67.0,57.6,29.63,NNW,337,12.0,16.0,72,0.00,,,0.00,Weather View 32 v70,2013-09-24 12:15:00,
2013-09-24 08:20:00,67.0,57.6,29.63,NNW,337,7.0,16.0,72,0.00,,,0.00,Weather View 32 v70,2013-09-24 12:20:00,
2013-09-24 08:25:00,68.0,59.0,29.63,NNW,337,12.0,16.0,73,0.00,,,0.00,Weather View 32 v70,2013-09-24 12:25:00,
2013-09-24 08:30:00,68.0,59.0,29.63,NNW,337,11.0,16.0,73,0.00,,,0.00,Weather View 32 v70,2013-09-24 12:30:00,
2013-09-24 08:35:00,67.0,57.6,29.64,ENE,67,13.0,16.0,72,0.00,,,0.00,Weather View 32 v70,2013-09-24 12:35:00,
2013-09-24 08:40:00,68.0,59.0,29.64,ENE,67,13.0,16.0,73,0.00,,,0.00,Weather View 32 v70,2013-09-24 12:40:00,
2013-09-24 08:50:00,68.0,59.4,29.63,ENE,67,11.0,16.0,74,0.00,,,0.00,Weather View 32 v70,2013-09-24 12:50:00,
2013-09-24 08:55:00,68.0,59.4,29.63,ENE,67,10.0,16.0,74,0.00,,,0.00,Weather View 32 v70,2013-09-24 12:55:00,
2013-09-24 09:00:00,68.0,59.4,29.63,ENE,67,9.0,16.0,74,0.00,,,0.00,Weather View 32 v70,2013-09-24 13:00:00,
2013-09-24 09:05:00,68.0,59.4,29.64,NNW,337,10.0,16.0,74,0.00,,,0.00,Weather View 32 v70,2013-09-24 13:05:00,
2013-09-24 09:10:00,68.0,59.4,29.64,ENE,67,13.0,16.0,74,0.00,,,0.00,Weather View 32 v70,2013-09-24 13:10:00,
2013-09-24 09:15:00,68.0,59.4,29.66,NNW,337,12.0,16.0,74,0.00,,,0.00,Weather View 32 v70,2013-09-24 13:15:00,
2013-09-24 09:20:00,69.0,60.3,29.66,NNW,337,13.0,16.0,74,0.00,,,0.00,Weather View 32 v70,2013-09-24 13:20:00,
2013-09-24 09:25:00,69.0,60.3,29.63,ENE,67,13.0,16.0,74,0.00,,,0.00,Weather View 32 v70,2013-09-24 13:25:00,
2013-09-24 09:30:00,67.0,58.0,29.63,ENE,67,14.0,16.0,73,0.00,,,0.00,Weather View 32 v70,2013-09-24 13:30:00,
2013-09-24 09:35:00,67.0,58.0,29.65,ENE,67,15.0,16.0,73,0.00,,,0.00,Weather View 32 v70,2013-09-24 13:35:00,
2013-09-24 09:45:00,68.0,59.4,29.65,NNW,337,15.0,16.0,74,0.00,,,0.00,Weather View 32 v70,2013-09-24 13:45:00,
2013-09-24 09:50:00,68.0,59.4,29.65,ENE,67,13.0,16.0,74,0.00,,,0.00,Weather View 32 v70,2013-09-24 13:50:00,
2013-09-24 09:55:00,68.0,59.4,29.64,ENE,67,16.0,19.0,74,0.00,,,0.00,Weather View 32 v70,2013-09-24 13:55:00,
2013-09-24 10:00:00,69.0,60.7,29.64,NNW,337,17.0,21.0,75,0.00,,,0.00,Weather View 32 v70,2013-09-24 14:00:00,
2013-09-24 10:05:00,69.0,60.7,29.66,NNW,337,15.0,21.0,75,0.00,,,0.00,Weather View 32 v70,2013-09-24 14:05:00,
2013-09-24 10:10:00,68.0,59.8,29.66,NNW,337,12.0,21.0,75,0.00,,,0.00,Weather View 32 v70,2013-09-24 14:10:00,
2013-09-24 10:15:00,69.0,60.7,29.67,NNW,337,12.0,21.0,75,0.00,,,0.00,Weather View 32 v70,2013-09-24 14:15:00,
2013-09-24 10:20:00,68.0,59.8,29.67,ENE,67,16.0,21.0,75,0.00,,,0.00,Weather View 32 v70,2013-09-24 14:20:00,
2013-09-24 10:25:00,68.0,59.8,29.65,ENE,67,16.0,21.0,75,0.00,,,0.00,Weather View 32 v70,2013-09-24 14:25:00,
2013-09-24 10:35:00,69.0,60.7,29.67,NNW,337,15.0,21.0,75,0.00,,,0.00,Weather View 32 v70,2013-09-24 14:35:00,
2013-09-24 10:40:00,69.0,60.7,29.67,NNW,337,12.0,21.0,75,0.00,,,0.00,Weather View 32 v70,2013-09-24 14:40:00,
2013-09-24 10:45:00,69.0,60.7,29.64,NNW,337,15.0,21.0,75,0.00,,,0.00,Weather View 32 v70,2013-09-24 14:45:00,
2013-09-24 10:50:00,68.0,59.8,29.64,ENE,67,13.0,21.0,75,0.00,,,0.00,Weather View 32 v70,2013-09-24 14:50:00,
2013-09-24 10:55:00,69.0,60.7,29.65,NNW,337,17.0,21.0,75,0.00,,,0.00,Weather View 32 v70,2013-09-24 14:55:00,
2013-09-24 11:00:00,68.0,59.8,29.65,ENE,67,15.0,21.0,75,0.00,,,0.00,Weather View 32 v70,2013-09-24 15:00:00,
2013-09-24 11:05:00,69.0,60.7,29.64,NNW,337,9.0,21.0,75,0.00,,,0.00,Weather View 32 v70,2013-09-24 15:05:00,
2013-09-24 11:10:00,68.0,59.8,29.64,ENE,67,16.0,21.0,75,0.00,,,0.00,Weather View 32 v70,2013-09-24 15:10:00,
2013-09-24 11:15:00,68.0,59.8,29.66,ENE,67,10.0,21.0,75,0.00,,,0.00,Weather View 32 v70,2013-09-24 15:15:00,
2013-09-24 11:24:00,68.0,59.8,29.66,ENE,67,11.0,21.0,75,0.00,,,0.00,Weather View 32 v70,2013-09-24 15:24:00,
2013-09-24 11:30:00,68.0,59.8,29.66,ENE,67,9.0,21.0,75,0.00,,,0.00,Weather View 32 v70,2013-09-24 15:30:00,
2013-09-24 11:35:00,68.0,59.8,29.64,ENE,67,13.0,21.0,75,0.00,,,0.00,Weather View 32 v70,2013-09-24 15:35:00,
2013-09-24 11:40:00,68.0,59.8,29.64,ENE,67,12.0,21.0,75,0.00,,,0.00,Weather View 32 v70,2013-09-24 15:40:00,
2013-09-24 11:45:00,68.0,59.8,29.63,ENE,67,16.0,20.0,75,0.00,,,0.00,Weather View 32 v70,2013-09-24 15:45:00,
2013-09-24 11:50:00,68.0,59.8,29.63,ENE,67,15.0,20.0,75,0.00,,,0.00,Weather View 32 v70,2013-09-24 15:50:00,
2013-09-24 11:55:00,68.0,59.8,29.65,ENE,67,17.0,20.0,75,0.00,,,0.00,Weather View 32 v70,2013-09-24 15:55:00,
2013-09-24 12:00:00,68.0,59.8,29.65,ENE,67,13.0,20.0,75,0.00,,,0.00,Weather View 32 v70,2013-09-24 16:00:00,
2013-09-24 12:05:00,69.0,60.7,29.62,ENE,67,13.0,21.0,75,0.00,,,0.00,Weather View 32 v70,2013-09-24 16:05:00,
2013-09-24 12:10:00,69.0,60.7,29.62,ENE,67,12.0,21.0,75,0.00,,,0.00,Weather View 32 v70,2013-09-24 16:10:00,
2013-09-24 12:20:00,69.0,60.7,29.62,ENE,67,16.0,21.0,75,0.00,,,0.00,Weather View 32 v70,2013-09-24 16:20:00,
2013-09-24 12:25:00,68.0,59.8,29.63,ENE,67,10.0,21.0,75,0.00,,,0.00,Weather View 32 v70,2013-09-24 16:25:00,
2013-09-24 12:35:00,69.0,60.7,29.61,ENE,67,12.0,21.0,75,0.00,,,0.00,Weather View 32 v70,2013-09-24 16:35:00,
2013-09-24 12:40:00,69.0,60.7,29.61,ENE,67,15.0,21.0,75,0.00,,,0.00,Weather View 32 v70,2013-09-24 16:40:00,
2013-09-24 12:45:00,69.0,60.7,29.63,ENE,67,9.0,21.0,75,0.00,,,0.00,Weather View 32 v70,2013-09-24 16:45:00,
2013-09-24 12:50:00,69.0,60.7,29.63,ENE,67,13.0,21.0,75,0.00,,,0.00,Weather View 32 v70,2013-09-24 16:50:00,
2013-09-24 12:55:00,68.0,59.8,29.60,ENE,67,13.0,21.0,75,0.00,,,0.00,Weather View 32 v70,2013-09-24 16:55:00,
2013-09-24 13:00:00,69.0,60.7,29.60,ENE,67,14.0,21.0,75,0.00,,,0.00,Weather View 32 v70,2013-09-24 17:00:00,
2013-09-24 13:05:00,69.0,60.7,29.59,ENE,67,9.0,19.0,75,0.00,,,0.00,Weather View 32 v70,2013-09-24 17:05:00,
2013-09-24 13:15:00,70.0,61.7,29.59,ENE,67,10.0,19.0,75,0.00,,,0.00,Weather View 32 v70,2013-09-24 17:15:00,
2013-09-24 13:20:00,69.0,60.7,29.59,ENE,67,13.0,19.0,75,0.00,,,0.00,Weather View 32 v70,2013-09-24 17:20:00,
2013-09-24 13:25:00,69.0,60.7,29.59,ENE,67,13.0,19.0,75,0.00,,,0.00,Weather View 32 v70,2013-09-24 17:25:00,
2013-09-24 13:35:00,69.0,60.7,29.60,ENE,67,13.0,19.0,75,0.00,,,0.00,Weather View 32 v70,2013-09-24 17:35:00,
2013-09-24 13:40:00,69.0,60.7,29.60,ENE,67,9.0,19.0,75,0.00,,,0.00,Weather View 32 v70,2013-09-24 17:40:00,
2013-09-24 13:45:00,70.0,61.7,29.57,ENE,67,10.0,19.0,75,0.00,,,0.00,Weather View 32 v70,2013-09-24 17:45:00,
2013-09-24 13:50:00,69.0,60.7,29.57,ENE,67,11.0,19.0,75,0.00,,,0.00,Weather View 32 v70,2013-09-24 17:50:00,
2013-09-24 13:55:00,69.0,60.7,29.57,ENE,67,9.0,19.0,75,0.00,,,0.00,Weather View 32 v70,2013-09-24 17:55:00,
2013-09-24 14:05:00,69.0,60.7,29.60,ENE,67,12.0,17.0,75,0.00,,,0.00,Weather View 32 v70,2013-09-24 18:05:00,
2013-09-24 14:10:00,69.0,60.7,29.60,ENE,67,11.0,16.0,75,0.00,,,0.00,Weather View 32 v70,2013-09-24 18:10:00,
2013-09-24 14:15:00,69.0,60.7,29.57,ENE,67,10.0,16.0,75,0.00,,,0.00,Weather View 32 v70,2013-09-24 18:15:00,
2013-09-24 14:20:00,70.0,61.7,29.57,ENE,67,10.0,16.0,75,0.00,,,0.00,Weather View 32 v70,2013-09-24 18:20:00,
2013-09-24 14:25:00,69.0,60.7,29.56,ENE,67,15.0,16.0,75,0.00,,,0.00,Weather View 32 v70,2013-09-24 18:25:00,
2013-09-24 14:30:00,69.0,60.7,29.56,ENE,67,14.0,17.0,75,0.00,,,0.00,Weather View 32 v70,2013-09-24 18:30:00,
2013-09-24 14:35:00,69.0,60.7,29.58,ENE,67,9.0,17.0,75,0.00,,,0.00,Weather View 32 v70,2013-09-24 18:35:00,
2013-09-24 14:40:00,70.0,61.7,29.58,ENE,67,12.0,17.0,75,0.00,,,0.00,Weather View 32 v70,2013-09-24 18:40:00,
2013-09-24 14:45:00,69.0,60.7,29.55,ENE,67,13.0,17.0,75,0.00,,,0.00,Weather View 32 v70,2013-09-24 18:45:00,
2013-09-24 14:50:00,70.0,61.7,29.55,ENE,67,15.0,17.0,75,0.00,,,0.00,Weather View 32 v70,2013-09-24 18:50:00,
2013-09-24 15:00:00,70.0,61.7,29.56,ENE,67,10.0,17.0,75,0.00,,,0.00,Weather View 32 v70,2013-09-24 19:00:00,
2013-09-24 15:05:00,69.0,60.7,29.57,ENE,67,13.0,17.0,75,0.00,,,0.00,Weather View 32 v70,2013-09-24 19:05:00,
2013-09-24 15:10:00,70.0,61.7,29.57,ENE,67,9.0,17.0,75,0.00,,,0.00,Weather View 32 v70,2013-09-24 19:10:00,
2013-09-24 15:15:00,70.0,61.7,29.54,ENE,67,9.0,17.0,75,0.00,,,0.00,Weather View 32 v70,2013-09-24 19:15:00,
2013-09-24 15:20:00,70.0,61.7,29.54,ENE,67,12.0,17.0,75,0.00,,,0.00,Weather View 32 v70,2013-09-24 19:20:00,
2013-09-24 15:25:00,69.0,60.7,29.54,ENE,67,12.0,17.0,75,0.00,,,0.00,Weather View 32 v70,2013-09-24 19:25:00,
2013-09-24 15:30:00,70.0,61.7,29.54,ENE,67,10.0,17.0,75,0.00,,,0.00,Weather View 32 v70,2013-09-24 19:30:00,
2013-09-24 15:35:00,70.0,61.7,29.57,SSE,157,9.0,17.0,75,0.00,,,0.00,Weather View 32 v70,2013-09-24 19:35:00,
2013-09-24 15:45:00,70.0,61.7,29.54,ENE,67,13.0,17.0,75,0.00,,,0.00,Weather View 32 v70,2013-09-24 19:45:00,
2013-09-24 15:50:00,70.0,61.7,29.54,ENE,67,8.0,17.0,75,0.00,,,0.00,Weather View 32 v70,2013-09-24 19:50:00,
2013-09-24 16:00:00,70.0,61.7,29.56,ENE,67,11.0,17.0,75,0.00,,,0.00,Weather View 32 v70,2013-09-24 20:00:00,
2013-09-24 16:05:00,70.0,61.7,29.54,ENE,67,7.0,17.0,75,0.00,,,0.00,Weather View 32 v70,2013-09-24 20:05:00,
2013-09-24 16:10:00,70.0,61.7,29.54,ENE,67,9.0,17.0,75,0.00,,,0.00,Weather View 32 v70,2013-09-24 20:10:00,
2013-09-24 16:15:00,70.0,61.7,29.53,SSE,157,6.0,15.0,75,0.00,,,0.00,Weather View 32 v70,2013-09-24 20:15:00,
2013-09-24 16:20:00,70.0,61.7,29.53,SSE,157,9.0,15.0,75,0.00,,,0.00,Weather View 32 v70,2013-09-24 20:20:00,
2013-09-24 16:25:00,70.0,61.7,29.56,ENE,67,11.0,15.0,75,0.00,,,0.00,Weather View 32 v70,2013-09-24 20:25:00,
2013-09-24 16:30:00,70.0,61.7,29.56,ENE,67,7.0,15.0,75,0.00,,,0.00,Weather View 32 v70,2013-09-24 20:30:00,
2013-09-24 16:35:00,70.0,61.7,29.54,ENE,67,7.0,15.0,75,0.00,,,0.00,Weather View 32 v70,2013-09-24 20:35:00,
2013-09-24 16:40:00,70.0,61.7,29.54,ENE,67,10.0,15.0,75,0.00,,,0.00,Weather View 32 v70,2013-09-24 20:40:00,
2013-09-24 16:45:00,70.0,61.7,29.53,SSE,157,5.0,15.0,75,0.00,,,0.00,Weather View 32 v70,2013-09-24 20:45:00,
2013-09-24 16:55:00,70.0,61.7,29.56,ENE,67,11.0,15.0,75,0.00,,,0.00,Weather View 32 v70,2013-09-24 20:55:00,
2013-09-24 17:00:00,70.0,61.7,29.56,ENE,67,6.0,15.0,75,0.00,,,0.00,Weather View 32 v70,2013-09-24 21:00:00,
2013-09-24 17:05:00,70.0,61.7,29.53,ENE,67,9.0,15.0,75,0.00,,,0.00,Weather View 32 v70,2013-09-24 21:05:00,
2013-09-24 17:10:00,70.0,61.7,29.53,SSE,157,6.0,15.0,75,0.00,,,0.00,Weather View 32 v70,2013-09-24 21:10:00,
2013-09-24 17:20:00,70.0,61.7,29.55,ENE,67,10.0,14.0,75,0.00,,,0.00,Weather View 32 v70,2013-09-24 21:20:00,
2013-09-24 17:27:00,70.0,61.7,29.53,SSE,157,4.0,14.0,75,0.00,,,0.00,Weather View 32 v70,2013-09-24 21:27:00,
2013-09-24 17:35:00,70.0,61.7,29.53,ENE,67,7.0,14.0,75,0.00,,,0.00,Weather View 32 v70,2013-09-24 21:35:00,
2013-09-24 17:40:00,70.0,61.7,29.53,SSE,157,7.0,13.0,75,0.00,,,0.00,Weather View 32 v70,2013-09-24 21:40:00,
2013-09-24 17:45:00,70.0,61.7,29.53,ENE,67,8.0,13.0,75,0.00,,,0.00,Weather View 32 v70,2013-09-24 21:45:00,
2013-09-24 17:55:00,70.0,61.7,29.55,SSE,157,6.0,13.0,75,0.00,,,0.00,Weather View 32 v70,2013-09-24 21:55:00,
2013-09-24 18:00:00,70.0,61.7,29.55,SSE,157,9.0,12.0,75,0.00,,,0.00,Weather View 32 v70,2013-09-24 22:00:00,
2013-09-24 18:05:00,70.0,61.7,29.55,SSE,157,7.0,12.0,75,0.00,,,0.00,Weather View 32 v70,2013-09-24 22:05:00,
2013-09-24 18:10:00,70.0,61.7,29.55,ENE,67,7.0,12.0,75,0.00,,,0.00,Weather View 32 v70,2013-09-24 22:10:00,
2013-09-24 18:20:00,70.0,61.7,29.53,ENE,67,10.0,12.0,75,0.00,,,0.00,Weather View 32 v70,2013-09-24 22:20:00,
2013-09-24 18:25:00,70.0,61.7,29.53,SSE,157,4.0,12.0,75,0.00,,,0.00,Weather View 32 v70,2013-09-24 22:25:00,
2013-09-24 18:30:00,70.0,61.7,29.53,SSE,157,6.0,12.0,75,0.00,,,0.00,Weather View 32 v70,2013-09-24 22:30:00,
2013-09-24 18:35:00,70.0,61.7,29.54,SSE,157,4.0,12.0,75,0.00,,,0.00,Weather View 32 v70,2013-09-24 22:35:00,
2013-09-24 18:40:00,69.0,60.7,29.54,SSE,157,7.0,12.0,75,0.00,,,0.00,Weather View 32 v70,2013-09-24 22:40:00,
2013-09-24 18:45:00,69.0,60.7,29.52,SSE,157,3.0,12.0,75,0.00,,,0.00,Weather View 32 v70,2013-09-24 22:45:00,
2013-09-24 18:50:00,69.0,60.7,29.52,ENE,67,8.0,12.0,75,0.00,,,0.00,Weather View 32 v70,2013-09-24 22:50:00,
2013-09-24 18:55:00,69.0,60.7,29.52,SSE,157,7.0,12.0,75,0.00,,,0.00,Weather View 32 v70,2013-09-24 22:55:00,
2013-09-24 19:00:00,69.0,60.7,29.52,SSE,157,7.0,12.0,75,0.00,,,0.00,Weather View 32 v70,2013-09-24 23:00:00,
2013-09-24 19:10:00,69.0,60.7,29.53,SSE,157,4.0,11.0,75,0.00,,,0.00,Weather View 32 v70,2013-09-24 23:10:00,
2013-09-24 19:15:00,69.0,60.7,29.52,SSE,157,4.0,11.0,75,0.00,,,0.00,Weather View 32 v70,2013-09-24 23:15:00,
2013-09-24 19:20:00,69.0,60.7,29.52,SSE,157,7.0,10.0,75,0.00,,,0.00,Weather View 32 v70,2013-09-24 23:20:00,
2013-09-24 19:25:00,69.0,60.7,29.52,SSE,157,8.0,10.0,75,0.00,,,0.00,Weather View 32 v70,2013-09-24 23:25:00,
2013-09-24 19:30:00,69.0,60.7,29.52,ENE,67,7.0,10.0,75,0.00,,,0.00,Weather View 32 v70,2013-09-24 23:30:00,
2013-09-24 19:35:00,69.0,60.7,29.51,ENE,67,6.0,10.0,75,0.00,,,0.00,Weather View 32 v70,2013-09-24 23:35:00,
2013-09-24 19:40:00,69.0,60.7,29.51,ENE,67,5.0,10.0,75,0.00,,,0.00,Weather View 32 v70,2013-09-24 23:40:00,
2013-09-24 19:45:00,69.0,60.7,29.54,SSE,157,6.0,10.0,75,0.00,,,0.00,Weather View 32 v70,2013-09-24 23:45:00,
2013-09-24 19:50:00,69.0,60.7,29.54,SSE,157,7.0,10.0,75,0.00,,,0.00,Weather View 32 v70,2013-09-24 23:50:00,
2013-09-24 19:55:00,69.0,60.7,29.52,SSE,157,6.0,10.0,75,0.00,,,0.00,Weather View 32 v70,2013-09-24 23:55:00,
2013-09-24 20:05:00,69.0,60.7,29.51,SSE,157,5.0,9.0,75,0.00,,,0.00,Weather View 32 v70,2013-09-25 00:05:00,
2013-09-24 20:10:00,69.0,60.7,29.51,ENE,67,6.0,9.0,75,0.00,,,0.00,Weather View 32 v70,2013-09-25 00:10:00,
2013-09-24 20:15:00,69.0,60.7,29.54,ENE,67,7.0,9.0,75,0.00,,,0.00,Weather View 32 v70,2013-09-25 00:15:00,
2013-09-24 20:20:00,69.0,60.7,29.54,SSE,157,6.0,9.0,75,0.00,,,0.00,Weather View 32 v70,2013-09-25 00:20:00,
2013-09-24 20:25:00,69.0,60.7,29.52,SSE,157,5.0,9.0,75,0.00,,,0.00,Weather View 32 v70,2013-09-25 00:25:00,
2013-09-24 20:30:00,69.0,60.7,29.52,ENE,67,9.0,9.0,75,0.00,,,0.00,Weather View 32 v70,2013-09-25 00:30:00,
2013-09-24 20:35:00,69.0,60.7,29.51,SSE,157,4.0,9.0,75,0.00,,,0.00,Weather View 32 v70,2013-09-25 00:35:00,
2013-09-24 20:40:00,69.0,60.7,29.51,ENE,67,8.0,9.0,75,0.00,,,0.00,Weather View 32 v70,2013-09-25 00:40:00,
2013-09-24 20:45:00,69.0,60.7,29.53,ENE,67,6.0,9.0,75,0.00,,,0.00,Weather View 32 v70,2013-09-25 00:45:00,
2013-09-24 20:50:00,69.0,60.7,29.53,SSE,157,6.0,9.0,75,0.00,,,0.00,Weather View 32 v70,2013-09-25 00:50:00,
2013-09-24 21:00:00,69.0,60.7,29.53,ENE,67,7.0,9.0,75,0.00,,,0.00,Weather View 32 v70,2013-09-25 01:00:00,
2013-09-24 21:05:00,69.0,60.7,29.50,ENE,67,7.0,10.0,75,0.00,,,0.00,Weather View 32 v70,2013-09-25 01:05:00,
2013-09-24 21:10:00,69.0,60.7,29.50,SSE,157,4.0,10.0,75,0.00,,,0.00,Weather View 32 v70,2013-09-25 01:10:00,
2013-09-24 21:15:00,69.0,60.7,29.51,SSE,157,6.0,10.0,75,0.00,,,0.00,Weather View 32 v70,2013-09-25 01:15:00,
2013-09-24 21:25:00,69.0,60.7,29.51,ENE,67,6.0,10.0,75,0.00,,,0.00,Weather View 32 v70,2013-09-25 01:25:00,
2013-09-24 21:30:00,69.0,60.7,29.51,ENE,67,7.0,10.0,75,0.00,,,0.00,Weather View 32 v70,2013-09-25 01:30:00,
2013-09-24 21:35:00,69.0,60.7,29.51,ENE,67,9.0,10.0,75,0.00,,,0.00,Weather View 32 v70,2013-09-25 01:35:00,
2013-09-24 21:40:00,69.0,60.7,29.51,ENE,67,7.0,10.0,75,0.00,,,0.00,Weather View 32 v70,2013-09-25 01:40:00,
2013-09-24 21:45:00,69.0,60.7,29.51,ENE,67,8.0,10.0,75,0.00,,,0.00,Weather View 32 v70,2013-09-25 01:45:00,
2013-09-24 21:55:00,69.0,60.7,29.52,ENE,67,9.0,10.0,75,0.00,,,0.00,Weather View 32 v70,2013-09-25 01:55:00,
2013-09-24 22:00:00,69.0,60.7,29.52,ENE,67,6.0,10.0,75,0.00,,,0.00,Weather View 32 v70,2013-09-25 02:00:00,
2013-09-24 22:05:00,69.0,60.7,29.50,ENE,67,6.0,11.0,75,0.00,,,0.00,Weather View 32 v70,2013-09-25 02:05:00,
2013-09-24 22:10:00,69.0,60.7,29.50,ENE,67,6.0,11.0,75,0.00,,,0.00,Weather View 32 v70,2013-09-25 02:10:00,
2013-09-24 22:20:00,69.0,60.7,29.50,ENE,67,6.0,11.0,75,0.00,,,0.00,Weather View 32 v70,2013-09-25 02:20:00,
2013-09-24 22:25:00,69.0,60.7,29.53,ENE,67,6.0,11.0,75,0.00,,,0.00,Weather View 32 v70,2013-09-25 02:25:00,
2013-09-24 22:30:00,69.0,60.7,29.53,ENE,67,4.0,11.0,75,0.00,,,0.00,Weather View 32 v70,2013-09-25 02:30:00,
2013-09-24 22:40:00,69.0,60.7,29.52,ENE,67,8.0,11.0,75,0.00,,,0.00,Weather View 32 v70,2013-09-25 02:40:00,
2013-09-24 22:45:00,69.0,60.7,29.51,ENE,67,7.0,11.0,75,0.00,,,0.00,Weather View 32 v70,2013-09-25 02:45:00,
2013-09-24 22:50:00,69.0,60.7,29.51,ENE,67,7.0,11.0,75,0.00,,,0.00,Weather View 32 v70,2013-09-25 02:50:00,
2013-09-24 23:00:00,69.0,60.7,29.51,ENE,67,7.0,12.0,75,0.00,,,0.00,Weather View 32 v70,2013-09-25 03:00:00,
2013-09-24 23:05:00,69.0,60.7,29.52,ENE,67,9.0,12.0,75,0.00,,,0.00,Weather View 32 v70,2013-09-25 03:05:00,
2013-09-24 23:10:00,69.0,60.7,29.52,ENE,67,8.0,12.0,75,0.00,,,0.00,Weather View 32 v70,2013-09-25 03:10:00,
2013-09-24 23:15:00,70.0,61.7,29.51,ENE,67,6.0,12.0,75,0.00,,,0.00,Weather View 32 v70,2013-09-25 03:15:00,
2013-09-24 23:20:00,69.0,60.7,29.51,ENE,67,7.0,12.0,75,0.00,,,0.00,Weather View 32 v70,2013-09-25 03:20:00,
2013-09-24 23:25:00,69.0,60.7,29.51,ENE,67,7.0,12.0,75,0.00,,,0.00,Weather View 32 v70,2013-09-25 03:25:00,
2013-09-24 23:30:00,69.0,60.7,29.51,ENE,67,9.0,12.0,75,0.00,,,0.00,Weather View 32 v70,2013-09-25 03:30:00,
2013-09-24 23:40:00,69.0,60.7,29.52,ENE,67,6.0,12.0,75,0.00,,,0.00,Weather View 32 v70,2013-09-25 03:40:00,
2013-09-24 23:50:00,69.0,60.7,29.51,ENE,67,7.0,12.0,75,0.00,,,0.00,Weather View 32 v70,2013-09-25 03:50:00,
2013-09-24 23:55:00,69.0,60.7,29.50,ENE,67,7.0,12.0,75,0.00,,,0.00,Weather View 32 v70,2013-09-25 03:55:00,